createdAt,value
2017-11-03T00:00:41.538Z,1008
2017-11-03T00:01:41.522Z,1008.02
2017-11-03T00:02:41.506Z,1008.07
2017-11-03T00:03:41.487Z,1008.03
2017-11-03T00:04:41.474Z,1008.04
2017-11-03T00:05:41.457Z,1008.03
2017-11-03T00:06:41.438Z,1008
2017-11-03T00:07:41.424Z,1008.09
2017-11-03T00:08:41.404Z,1008.06
2017-11-03T00:09:41.397Z,1008.05
2017-11-03T00:10:41.368Z,1008.05
2017-11-03T00:11:41.352Z,1008.05
2017-11-03T00:12:41.336Z,1008.11
2017-11-03T00:13:41.321Z,1008.12
2017-11-03T00:14:41.302Z,1008.08
2017-11-03T00:15:41.285Z,1008.11
2017-11-03T00:16:41.271Z,1008.09
2017-11-03T00:17:41.254Z,1008.09
2017-11-03T00:18:41.235Z,1008.04
2017-11-03T00:19:41.216Z,1008.06
2017-11-03T00:20:41.200Z,1008.07
2017-11-03T00:21:41.182Z,1008.06
2017-11-03T00:22:41.167Z,1008.06
2017-11-03T00:23:41.152Z,1008.08
2017-11-03T00:24:41.134Z,1008.07
2017-11-03T00:25:41.114Z,1008.09
2017-11-03T00:26:41.153Z,1008.1
2017-11-03T00:27:41.088Z,1008.14
2017-11-03T00:28:41.065Z,1008.13
2017-11-03T00:29:41.048Z,1008.13
2017-11-03T00:30:41.033Z,1008.09
2017-11-03T00:31:41.017Z,1008.08
2017-11-03T00:32:40.997Z,1008.08
2017-11-03T00:33:40.982Z,1008.08
2017-11-03T00:34:40.965Z,1008.03
2017-11-03T00:35:40.946Z,1008.07
2017-11-03T00:36:40.932Z,1008.05
2017-11-03T00:37:40.913Z,1008.08
2017-11-03T00:38:40.898Z,1008.09
2017-11-03T00:39:40.879Z,1008.07
2017-11-03T00:40:40.864Z,1008.07
2017-11-03T00:41:40.851Z,1008.06
2017-11-03T00:42:40.830Z,1008.03
2017-11-03T00:43:40.811Z,1008.07
2017-11-03T00:44:40.795Z,1008.05
2017-11-03T00:45:40.777Z,1008.04
2017-11-03T00:46:40.762Z,1008.05
2017-11-03T00:47:40.745Z,1008.07
2017-11-03T00:48:40.728Z,1008.08
2017-11-03T00:49:40.714Z,1008.03
2017-11-03T00:50:40.694Z,1008.02
2017-11-03T00:51:40.680Z,1008.01
2017-11-03T00:52:40.661Z,1007.99
2017-11-03T00:53:40.646Z,1008
2017-11-03T00:54:40.625Z,1008.01
2017-11-03T00:55:40.614Z,1007.97
2017-11-03T00:56:40.598Z,1007.95
2017-11-03T00:57:40.577Z,1007.98
2017-11-03T00:58:40.561Z,1007.98
2017-11-03T00:59:40.543Z,1007.97
2017-11-03T01:00:40.535Z,1007.99
2017-11-03T01:01:40.509Z,1008.02
2017-11-03T01:02:40.494Z,1007.98
2017-11-03T01:03:40.489Z,1007.99
2017-11-03T01:04:40.462Z,1008.03
2017-11-03T01:05:40.441Z,1008.02
2017-11-03T01:06:40.425Z,1008.06
2017-11-03T01:07:40.417Z,1008.07
2017-11-03T01:08:40.393Z,1008.1
2017-11-03T01:09:40.382Z,1008.08
2017-11-03T01:10:40.358Z,1008.08
2017-11-03T01:11:40.350Z,1008.08
2017-11-03T01:12:40.330Z,1008.1
2017-11-03T01:13:40.313Z,1008.09
2017-11-03T01:14:40.292Z,1008.07
2017-11-03T01:15:40.276Z,1008.08
2017-11-03T01:16:40.258Z,1008.07
2017-11-03T01:17:40.243Z,1008.04
2017-11-03T01:18:40.224Z,1008.09
2017-11-03T01:19:40.213Z,1008.1
2017-11-03T01:20:40.191Z,1008.13
2017-11-03T01:21:40.174Z,1008.1
2017-11-03T01:22:40.159Z,1008.11
2017-11-03T01:23:40.142Z,1008.03
2017-11-03T01:24:40.128Z,1008
2017-11-03T01:25:40.108Z,1008.03
2017-11-03T01:26:40.092Z,1007.99
2017-11-03T01:27:40.073Z,1008
2017-11-03T01:28:40.061Z,1008
2017-11-03T01:29:40.040Z,1007.99
2017-11-03T01:30:40.023Z,1008.01
2017-11-03T01:31:40.007Z,1007.98
2017-11-03T01:32:39.990Z,1007.98
2017-11-03T01:33:39.976Z,1007.97
2017-11-03T01:34:39.956Z,1007.96
2017-11-03T01:35:39.940Z,1008.04
2017-11-03T01:36:39.923Z,1008
2017-11-03T01:37:39.909Z,1007.99
2017-11-03T01:38:39.889Z,1008.06
2017-11-03T01:39:39.872Z,1008.01
2017-11-03T01:40:39.860Z,1008.05
2017-11-03T01:41:39.839Z,1008.1
2017-11-03T01:42:39.825Z,1008.06
2017-11-03T01:43:39.809Z,1008.07
2017-11-03T01:44:39.792Z,1008.06
2017-11-03T01:45:39.776Z,1008.09
2017-11-03T01:46:39.758Z,1008.07
2017-11-03T01:47:39.742Z,1008.07
2017-11-03T01:48:39.732Z,1008.04
2017-11-03T01:49:39.711Z,1008.08
2017-11-03T01:50:39.689Z,1008.04
2017-11-03T01:51:39.673Z,1008.05
2017-11-03T01:52:39.656Z,1008.07
2017-11-03T01:53:39.643Z,1008.06
2017-11-03T01:54:39.622Z,1008.02
2017-11-03T01:55:39.606Z,1007.99
2017-11-03T01:56:39.587Z,1008
2017-11-03T01:57:39.572Z,1007.98
2017-11-03T01:58:39.557Z,1007.99
2017-11-03T01:59:39.538Z,1007.96
2017-11-03T02:00:39.521Z,1007.99
2017-11-03T02:01:39.506Z,1007.99
2017-11-03T02:02:39.493Z,1008
2017-11-03T02:03:39.472Z,1007.96
2017-11-03T02:04:39.464Z,1007.97
2017-11-03T02:05:39.438Z,1007.96
2017-11-03T02:06:39.423Z,1007.96
2017-11-03T02:07:39.410Z,1007.95
2017-11-03T02:08:39.388Z,1007.96
2017-11-03T02:09:39.372Z,1007.96
2017-11-03T02:10:39.356Z,1007.98
2017-11-03T02:11:39.340Z,1007.99
2017-11-03T02:12:39.323Z,1008
2017-11-03T02:13:39.308Z,1008.01
2017-11-03T02:14:39.293Z,1007.99
2017-11-03T02:15:39.272Z,1008.02
2017-11-03T02:16:39.258Z,1007.99
2017-11-03T02:17:39.242Z,1007.96
2017-11-03T02:18:39.223Z,1007.96
2017-11-03T02:19:39.206Z,1007.98
2017-11-03T02:20:39.191Z,1007.94
2017-11-03T02:21:39.174Z,1007.95
2017-11-03T02:22:39.159Z,1007.95
2017-11-03T02:23:39.191Z,1007.92
2017-11-03T02:24:39.125Z,1007.98
2017-11-03T02:25:39.107Z,1007.93
2017-11-03T02:26:39.094Z,1007.96
2017-11-03T02:27:39.076Z,1007.96
2017-11-03T02:28:39.060Z,1007.99
2017-11-03T02:29:39.041Z,1007.96
2017-11-03T02:30:39.026Z,1007.96
2017-11-03T02:31:39.009Z,1007.96
2017-11-03T02:32:38.993Z,1007.93
2017-11-03T02:33:38.977Z,1007.93
2017-11-03T02:34:38.958Z,1007.93
2017-11-03T02:35:38.943Z,1007.94
2017-11-03T02:36:38.925Z,1007.92
2017-11-03T02:37:38.909Z,1007.92
2017-11-03T02:38:38.894Z,1007.94
2017-11-03T02:39:38.880Z,1007.93
2017-11-03T02:40:38.859Z,1007.96
2017-11-03T02:41:38.844Z,1007.99
2017-11-03T02:42:38.831Z,1007.97
2017-11-03T02:43:38.811Z,1007.98
2017-11-03T02:44:38.798Z,1007.98
2017-11-03T02:45:38.781Z,1007.97
2017-11-03T02:46:38.765Z,1007.94
2017-11-03T02:47:38.744Z,1007.97
2017-11-03T02:48:38.732Z,1007.98
2017-11-03T02:49:38.712Z,1007.95
2017-11-03T02:50:38.696Z,1007.97
2017-11-03T02:51:38.681Z,1007.95
2017-11-03T02:52:38.663Z,1007.97
2017-11-03T02:53:38.648Z,1007.96
2017-11-03T02:54:38.636Z,1007.96
2017-11-03T02:55:38.613Z,1008
2017-11-03T02:56:38.596Z,1008
2017-11-03T02:57:38.582Z,1007.95
2017-11-03T02:58:38.565Z,1007.99
2017-11-03T02:59:38.549Z,1008
2017-11-03T03:00:38.531Z,1008
2017-11-03T03:01:38.515Z,1008.02
2017-11-03T03:02:38.499Z,1008.05
2017-11-03T03:03:38.483Z,1008.09
2017-11-03T03:04:38.469Z,1008.06
2017-11-03T03:05:38.453Z,1008.08
2017-11-03T03:06:38.433Z,1008.03
2017-11-03T03:07:38.421Z,1007.96
2017-11-03T03:08:38.402Z,1007.99
2017-11-03T03:09:38.386Z,1008.02
2017-11-03T03:10:38.368Z,1008.01
2017-11-03T03:11:38.352Z,1008.03
2017-11-03T03:12:38.336Z,1008.05
2017-11-03T03:13:38.322Z,1008.04
2017-11-03T03:14:38.304Z,1008.03
2017-11-03T03:15:38.288Z,1008.07
2017-11-03T03:16:38.272Z,1008.04
2017-11-03T03:17:38.255Z,1008.05
2017-11-03T03:18:38.239Z,1008.09
2017-11-03T03:19:38.225Z,1008.07
2017-11-03T03:20:38.206Z,1008.06
2017-11-03T03:21:38.191Z,1008.07
2017-11-03T03:22:38.174Z,1008.07
2017-11-03T03:23:38.159Z,1008.07
2017-11-03T03:24:38.141Z,1008.05
2017-11-03T03:25:38.127Z,1008.07
2017-11-03T03:26:38.108Z,1008.07
2017-11-03T03:27:38.094Z,1008.04
2017-11-03T03:28:38.077Z,1008.08
2017-11-03T03:29:38.060Z,1008.02
2017-11-03T03:30:38.049Z,1008.05
2017-11-03T03:31:38.028Z,1008.02
2017-11-03T03:32:38.013Z,1008.01
2017-11-03T03:33:37.997Z,1008.03
2017-11-03T03:34:37.981Z,1008.08
2017-11-03T03:35:37.965Z,1008.07
2017-11-03T03:36:37.947Z,1008.08
2017-11-03T03:37:37.931Z,1008.06
2017-11-03T03:38:37.917Z,1008.11
2017-11-03T03:39:37.898Z,1008.08
2017-11-03T03:40:37.891Z,1008.12
2017-11-03T03:41:37.872Z,1008.12
2017-11-03T03:42:37.852Z,1008.15
2017-11-03T03:43:37.836Z,1008.15
2017-11-03T03:44:37.825Z,1008.14
2017-11-03T03:45:37.804Z,1008.16
2017-11-03T03:46:37.791Z,1008.14
2017-11-03T03:47:37.771Z,1008.18
2017-11-03T03:48:37.755Z,1008.17
2017-11-03T03:49:37.742Z,1008.17
2017-11-03T03:50:37.722Z,1008.19
2017-11-03T03:51:37.706Z,1008.21
2017-11-03T03:52:37.691Z,1008.2
2017-11-03T03:53:37.677Z,1008.18
2017-11-03T03:54:37.660Z,1008.16
2017-11-03T03:55:37.641Z,1008.22
2017-11-03T03:56:37.625Z,1008.22
2017-11-03T03:57:37.609Z,1008.22
2017-11-03T03:58:37.592Z,1008.27
2017-11-03T03:59:37.579Z,1008.24
2017-11-03T04:00:37.561Z,1008.21
2017-11-03T04:01:37.548Z,1008.22
2017-11-03T04:02:37.527Z,1008.25
2017-11-03T04:03:37.521Z,1008.23
2017-11-03T04:04:37.495Z,1008.26
2017-11-03T04:05:37.479Z,1008.25
2017-11-03T04:06:37.464Z,1008.29
2017-11-03T04:07:37.448Z,1008.3
2017-11-03T04:08:37.432Z,1008.24
2017-11-03T04:09:37.416Z,1008.26
2017-11-03T04:10:37.403Z,1008.28
2017-11-03T04:11:37.387Z,1008.3
2017-11-03T04:12:37.366Z,1008.28
2017-11-03T04:13:37.351Z,1008.3
2017-11-03T04:14:37.336Z,1008.31
2017-11-03T04:15:37.319Z,1008.31
2017-11-03T04:16:37.304Z,1008.31
2017-11-03T04:17:37.287Z,1008.32
2017-11-03T04:18:37.270Z,1008.24
2017-11-03T04:19:37.258Z,1008.28
2017-11-03T04:20:37.240Z,1008.3
2017-11-03T04:21:37.222Z,1008.24
2017-11-03T04:22:37.209Z,1008.23
2017-11-03T04:23:37.190Z,1008.28
2017-11-03T04:24:37.174Z,1008.26
2017-11-03T04:25:37.156Z,1008.25
2017-11-03T04:26:37.141Z,1008.28
2017-11-03T04:27:37.124Z,1008.23
2017-11-03T04:28:37.110Z,1008.25
2017-11-03T04:29:37.092Z,1008.23
2017-11-03T04:30:37.078Z,1008.26
2017-11-03T04:31:37.059Z,1008.25
2017-11-03T04:32:37.046Z,1008.25
2017-11-03T04:33:37.026Z,1008.21
2017-11-03T04:34:37.009Z,1008.2
2017-11-03T04:35:36.995Z,1008.22
2017-11-03T04:36:36.978Z,1008.21
2017-11-03T04:37:36.963Z,1008.18
2017-11-03T04:38:36.946Z,1008.19
2017-11-03T04:39:36.928Z,1008.2
2017-11-03T04:40:36.915Z,1008.18
2017-11-03T04:41:36.904Z,1008.19
2017-11-03T04:42:36.878Z,1008.24
2017-11-03T04:43:36.862Z,1008.23
2017-11-03T04:44:36.845Z,1008.17
2017-11-03T04:45:36.828Z,1008.21
2017-11-03T04:46:36.813Z,1008.2
2017-11-03T04:47:36.795Z,1008.22
2017-11-03T04:48:36.779Z,1008.2
2017-11-03T04:49:36.761Z,1008.17
2017-11-03T04:50:36.746Z,1008.13
2017-11-03T04:51:36.735Z,1008.14
2017-11-03T04:52:36.715Z,1008.12
2017-11-03T04:53:36.700Z,1008.18
2017-11-03T04:54:36.681Z,1008.18
2017-11-03T04:55:36.671Z,1008.13
2017-11-03T04:56:36.646Z,1008.12
2017-11-03T04:57:36.633Z,1008.1
2017-11-03T04:58:36.618Z,1008.11
2017-11-03T04:59:36.599Z,1008.13
2017-11-03T05:00:36.582Z,1008.16
2017-11-03T05:01:36.572Z,1008.15
2017-11-03T05:02:36.547Z,1008.2
2017-11-03T05:03:36.532Z,1008.23
2017-11-03T05:04:36.515Z,1008.26
2017-11-03T05:05:36.502Z,1008.23
2017-11-03T05:06:36.481Z,1008.21
2017-11-03T05:07:36.465Z,1008.2
2017-11-03T05:08:36.451Z,1008.2
2017-11-03T05:09:36.433Z,1008.18
2017-11-03T05:10:36.424Z,1008.17
2017-11-03T05:11:36.399Z,1008.21
2017-11-03T05:12:36.382Z,1008.23
2017-11-03T05:13:36.365Z,1008.25
2017-11-03T05:14:36.349Z,1008.24
2017-11-03T05:15:36.332Z,1008.24
2017-11-03T05:16:36.321Z,1008.23
2017-11-03T05:17:36.299Z,1008.19
2017-11-03T05:18:36.284Z,1008.17
2017-11-03T05:19:36.267Z,1008.16
2017-11-03T05:20:36.251Z,1008.21
2017-11-03T05:21:36.240Z,1008.18
2017-11-03T05:22:36.217Z,1008.2
2017-11-03T05:23:36.205Z,1008.15
2017-11-03T05:24:36.193Z,1008.16
2017-11-03T05:25:36.167Z,1008.1
2017-11-03T05:26:36.157Z,1008.11
2017-11-03T05:27:36.133Z,1008.14
2017-11-03T05:28:36.116Z,1008.16
2017-11-03T05:29:36.103Z,1008.15
2017-11-03T05:30:36.085Z,1008.17
2017-11-03T05:31:36.068Z,1008.15
2017-11-03T05:32:36.054Z,1008.16
2017-11-03T05:33:36.038Z,1008.15
2017-11-03T05:34:36.019Z,1008.1
2017-11-03T05:35:36.000Z,1008.13
2017-11-03T05:36:35.986Z,1008.13
2017-11-03T05:37:35.968Z,1008.15
2017-11-03T05:38:36.153Z,1008.15
2017-11-03T05:39:35.934Z,1008.21
2017-11-03T05:40:35.919Z,1008.19
2017-11-03T05:41:35.905Z,1008.18
2017-11-03T05:42:35.889Z,1008.17
2017-11-03T05:43:35.868Z,1008.15
2017-11-03T05:44:35.853Z,1008.14
2017-11-03T05:45:35.841Z,1008.16
2017-11-03T05:46:35.818Z,1008.2
2017-11-03T05:47:35.803Z,1008.2
2017-11-03T05:48:35.787Z,1008.19
2017-11-03T05:49:35.771Z,1008.15
2017-11-03T05:50:35.751Z,1008.12
2017-11-03T05:51:35.736Z,1008.13
2017-11-03T05:52:35.724Z,1008.14
2017-11-03T05:53:35.702Z,1008.19
2017-11-03T05:54:35.689Z,1008.18
2017-11-03T05:55:35.670Z,1008.22
2017-11-03T05:56:35.653Z,1008.2
2017-11-03T05:57:35.636Z,1008.19
2017-11-03T05:58:35.622Z,1008.21
2017-11-03T05:59:35.607Z,1008.17
2017-11-03T06:00:35.587Z,1008.18
2017-11-03T06:01:35.570Z,1008.15
2017-11-03T06:02:35.553Z,1008.13
2017-11-03T06:03:35.540Z,1008.14
2017-11-03T06:04:35.534Z,1008.15
2017-11-03T06:05:35.503Z,1008.19
2017-11-03T06:06:35.487Z,1008.18
2017-11-03T06:07:35.472Z,1008.19
2017-11-03T06:08:35.457Z,1008.17
2017-11-03T06:09:35.441Z,1008.19
2017-11-03T06:10:35.423Z,1008.19
2017-11-03T06:11:35.416Z,1008.24
2017-11-03T06:12:35.387Z,1008.25
2017-11-03T06:13:35.370Z,1008.27
2017-11-03T06:14:35.354Z,1008.2
2017-11-03T06:15:35.341Z,1008.23
2017-11-03T06:16:35.322Z,1008.24
2017-11-03T06:17:35.307Z,1008.25
2017-11-03T06:18:35.297Z,1008.29
2017-11-03T06:19:35.271Z,1008.26
2017-11-03T06:20:35.255Z,1008.25
2017-11-03T06:21:35.237Z,1008.23
2017-11-03T06:22:35.226Z,1008.25
2017-11-03T06:23:35.204Z,1008.28
2017-11-03T06:24:35.187Z,1008.26
2017-11-03T06:25:35.172Z,1008.28
2017-11-03T06:26:35.158Z,1008.33
2017-11-03T06:27:35.140Z,1008.27
2017-11-03T06:28:35.124Z,1008.25
2017-11-03T06:29:35.107Z,1008.3
2017-11-03T06:30:35.094Z,1008.29
2017-11-03T06:31:35.074Z,1008.34
2017-11-03T06:32:35.056Z,1008.34
2017-11-03T06:33:35.041Z,1008.38
2017-11-03T06:34:35.026Z,1008.35
2017-11-03T06:35:35.014Z,1008.37
2017-11-03T06:36:34.996Z,1008.36
2017-11-03T06:37:34.976Z,1008.37
2017-11-03T06:38:34.962Z,1008.37
2017-11-03T06:39:34.941Z,1008.39
2017-11-03T06:40:34.930Z,1008.41
2017-11-03T06:41:34.913Z,1008.43
2017-11-03T06:42:34.898Z,1008.42
2017-11-03T06:43:34.873Z,1008.39
2017-11-03T06:44:34.858Z,1008.48
2017-11-03T06:45:34.841Z,1008.48
2017-11-03T06:46:34.827Z,1008.51
2017-11-03T06:47:34.807Z,1008.48
2017-11-03T06:48:34.796Z,1008.48
2017-11-03T06:49:34.775Z,1008.54
2017-11-03T06:50:34.759Z,1008.48
2017-11-03T06:51:34.742Z,1008.48
2017-11-03T06:52:34.726Z,1008.5
2017-11-03T06:53:34.715Z,1008.55
2017-11-03T06:54:34.693Z,1008.56
2017-11-03T06:55:34.676Z,1008.58
2017-11-03T06:56:34.658Z,1008.56
2017-11-03T06:57:34.641Z,1008.57
2017-11-03T06:58:34.625Z,1008.56
2017-11-03T06:59:34.612Z,1008.55
2017-11-03T07:00:34.591Z,1008.59
2017-11-03T07:01:34.580Z,1008.59
2017-11-03T07:02:34.560Z,1008.65
2017-11-03T07:03:34.544Z,1008.66
2017-11-03T07:04:34.527Z,1008.67
2017-11-03T07:05:34.512Z,1008.66
2017-11-03T07:06:34.494Z,1008.65
2017-11-03T07:07:34.480Z,1008.63
2017-11-03T07:08:34.461Z,1008.59
2017-11-03T07:09:34.449Z,1008.61
2017-11-03T07:10:34.428Z,1008.64
2017-11-03T07:11:34.415Z,1008.61
2017-11-03T07:12:34.395Z,1008.62
2017-11-03T07:13:34.380Z,1008.61
2017-11-03T07:14:34.369Z,1008.64
2017-11-03T07:15:34.344Z,1008.66
2017-11-03T07:16:34.329Z,1008.67
2017-11-03T07:17:34.318Z,1008.69
2017-11-03T07:18:34.296Z,1008.7
2017-11-03T07:19:34.282Z,1008.68
2017-11-03T07:20:34.264Z,1008.7
2017-11-03T07:21:34.251Z,1008.67
2017-11-03T07:22:34.231Z,1008.65
2017-11-03T07:23:34.217Z,1008.63
2017-11-03T07:24:34.197Z,1008.65
2017-11-03T07:25:34.180Z,1008.63
2017-11-03T07:26:34.166Z,1008.69
2017-11-03T07:27:34.148Z,1008.68
2017-11-03T07:28:34.131Z,1008.67
2017-11-03T07:29:34.115Z,1008.74
2017-11-03T07:30:34.104Z,1008.71
2017-11-03T07:31:34.088Z,1008.7
2017-11-03T07:32:34.065Z,1008.71
2017-11-03T07:33:34.051Z,1008.7
2017-11-03T07:34:34.036Z,1008.68
2017-11-03T07:35:34.017Z,1008.67
2017-11-03T07:36:34.004Z,1008.68
2017-11-03T07:37:33.986Z,1008.72
2017-11-03T07:38:34.170Z,1008.75
2017-11-03T07:39:33.954Z,1008.71
2017-11-03T07:40:33.935Z,1008.74
2017-11-03T07:41:33.921Z,1008.74
2017-11-03T07:42:33.903Z,1008.72
2017-11-03T07:43:33.887Z,1008.72
2017-11-03T07:44:33.870Z,1008.72
2017-11-03T07:45:33.855Z,1008.76
2017-11-03T07:46:33.840Z,1008.76
2017-11-03T07:47:33.822Z,1008.74
2017-11-03T07:48:33.805Z,1008.75
2017-11-03T07:49:33.792Z,1008.74
2017-11-03T07:50:33.774Z,1008.74
2017-11-03T07:51:33.760Z,1008.74
2017-11-03T07:52:33.743Z,1008.73
2017-11-03T07:53:33.735Z,1008.72
2017-11-03T07:54:33.709Z,1008.81
2017-11-03T07:55:33.694Z,1008.78
2017-11-03T07:56:33.680Z,1008.82
2017-11-03T07:57:33.664Z,1008.81
2017-11-03T07:58:33.644Z,1008.79
2017-11-03T07:59:33.628Z,1008.8
2017-11-03T08:00:33.816Z,1008.77
2017-11-03T08:01:33.597Z,1008.76
2017-11-03T08:02:33.581Z,1008.77
2017-11-03T08:03:33.566Z,1008.78
2017-11-03T08:04:33.555Z,1008.81
2017-11-03T08:05:33.532Z,1008.79
2017-11-03T08:06:33.518Z,1008.76
2017-11-03T08:07:33.505Z,1008.78
2017-11-03T08:08:33.485Z,1008.79
2017-11-03T08:09:33.470Z,1008.79
2017-11-03T08:10:33.453Z,1008.78
2017-11-03T08:11:33.437Z,1008.75
2017-11-03T08:12:33.419Z,1008.75
2017-11-03T08:13:33.404Z,1008.77
2017-11-03T08:14:33.389Z,1008.77
2017-11-03T08:15:33.374Z,1008.79
2017-11-03T08:16:33.355Z,1008.8
2017-11-03T08:17:33.340Z,1008.78
2017-11-03T08:18:33.374Z,1008.76
2017-11-03T08:19:33.307Z,1008.76
2017-11-03T08:20:33.294Z,1008.77
2017-11-03T08:21:33.279Z,1008.79
2017-11-03T08:22:33.262Z,1008.79
2017-11-03T08:23:33.245Z,1008.75
2017-11-03T08:24:33.227Z,1008.76
2017-11-03T08:25:33.213Z,1008.77
2017-11-03T08:26:33.198Z,1008.78
2017-11-03T08:27:33.186Z,1008.75
2017-11-03T08:28:33.166Z,1008.79
2017-11-03T08:29:33.149Z,1008.78
2017-11-03T08:30:33.136Z,1008.81
2017-11-03T08:31:33.119Z,1008.84
2017-11-03T08:32:33.103Z,1008.84
2017-11-03T08:33:33.087Z,1008.84
2017-11-03T08:34:33.071Z,1008.78
2017-11-03T08:35:33.058Z,1008.8
2017-11-03T08:36:33.041Z,1008.77
2017-11-03T08:37:33.033Z,1008.79
2017-11-03T08:38:33.010Z,1008.73
2017-11-03T08:39:32.993Z,1008.77
2017-11-03T08:40:32.982Z,1008.73
2017-11-03T08:41:32.963Z,1008.8
2017-11-03T08:42:32.947Z,1008.78
2017-11-03T08:43:32.934Z,1008.77
2017-11-03T08:44:32.917Z,1008.74
2017-11-03T08:45:32.899Z,1008.71
2017-11-03T08:46:32.884Z,1008.74
2017-11-03T08:47:32.869Z,1008.71
2017-11-03T08:48:32.856Z,1008.77
2017-11-03T08:49:32.835Z,1008.75
2017-11-03T08:50:32.822Z,1008.74
2017-11-03T08:51:32.807Z,1008.73
2017-11-03T08:52:32.796Z,1008.67
2017-11-03T08:53:32.777Z,1008.7
2017-11-03T08:54:32.759Z,1008.68
2017-11-03T08:55:32.745Z,1008.69
2017-11-03T08:56:32.728Z,1008.64
2017-11-03T08:57:32.715Z,1008.66
2017-11-03T08:58:32.700Z,1008.67
2017-11-03T08:59:32.686Z,1008.64
2017-11-03T09:00:32.671Z,1008.65
2017-11-03T09:01:32.653Z,1008.63
2017-11-03T09:02:32.638Z,1008.6
2017-11-03T09:03:32.626Z,1008.61
2017-11-03T09:04:32.607Z,1008.62
2017-11-03T09:05:32.590Z,1008.63
2017-11-03T09:06:32.577Z,1008.58
2017-11-03T09:07:32.561Z,1008.63
2017-11-03T09:08:32.545Z,1008.63
2017-11-03T09:09:32.530Z,1008.66
2017-11-03T09:10:32.515Z,1008.66
2017-11-03T09:11:32.499Z,1008.65
2017-11-03T09:12:32.483Z,1008.67
2017-11-03T09:13:32.470Z,1008.67
2017-11-03T09:14:32.458Z,1008.69
2017-11-03T09:15:32.440Z,1008.69
2017-11-03T09:16:32.424Z,1008.73
2017-11-03T09:17:32.409Z,1008.72
2017-11-03T09:18:32.393Z,1008.73
2017-11-03T09:19:32.378Z,1008.7
2017-11-03T09:20:32.362Z,1008.75
2017-11-03T09:21:32.347Z,1008.73
2017-11-03T09:22:32.331Z,1008.75
2017-11-03T09:23:32.316Z,1008.76
2017-11-03T09:24:32.314Z,1008.74
2017-11-03T09:25:32.301Z,1008.74
2017-11-03T09:26:32.272Z,1008.76
2017-11-03T09:27:32.254Z,1008.76
2017-11-03T09:28:32.241Z,1008.74
2017-11-03T09:29:32.235Z,1008.78
2017-11-03T09:30:32.213Z,1008.78
2017-11-03T09:31:32.201Z,1008.75
2017-11-03T09:32:32.180Z,1008.72
2017-11-03T09:33:32.166Z,1008.75
2017-11-03T09:34:32.150Z,1008.74
2017-11-03T09:35:32.136Z,1008.73
2017-11-03T09:36:32.119Z,1008.75
2017-11-03T09:37:32.108Z,1008.76
2017-11-03T09:38:32.302Z,1008.77
2017-11-03T09:39:32.076Z,1008.77
2017-11-03T09:40:32.061Z,1008.73
2017-11-03T09:41:32.046Z,1008.76
2017-11-03T09:42:32.043Z,1008.73
2017-11-03T09:43:32.017Z,1008.7
2017-11-03T09:44:32.004Z,1008.71
2017-11-03T09:45:31.994Z,1008.75
2017-11-03T09:46:31.975Z,1008.7
2017-11-03T09:47:31.957Z,1008.74
2017-11-03T09:48:31.942Z,1008.72
2017-11-03T09:49:31.928Z,1008.72
2017-11-03T09:50:31.914Z,1008.71
2017-11-03T09:51:31.903Z,1008.71
2017-11-03T09:52:31.886Z,1008.69
2017-11-03T09:53:31.868Z,1008.68
2017-11-03T09:54:31.853Z,1008.7
2017-11-03T09:55:31.837Z,1008.61
2017-11-03T09:56:31.825Z,1008.67
2017-11-03T09:57:31.812Z,1008.63
2017-11-03T09:58:31.796Z,1008.67
2017-11-03T09:59:31.781Z,1008.64
2017-11-03T10:00:31.765Z,1008.65
2017-11-03T10:01:31.751Z,1008.62
2017-11-03T10:02:31.740Z,1008.66
2017-11-03T10:03:31.722Z,1008.63
2017-11-03T10:04:31.710Z,1008.67
2017-11-03T10:05:31.694Z,1008.67
2017-11-03T10:06:31.680Z,1008.66
2017-11-03T10:07:31.664Z,1008.65
2017-11-03T10:08:31.653Z,1008.66
2017-11-03T10:09:31.637Z,1008.64
2017-11-03T10:10:31.621Z,1008.66
2017-11-03T10:11:31.607Z,1008.67
2017-11-03T10:12:31.595Z,1008.63
2017-11-03T10:13:31.577Z,1008.61
2017-11-03T10:14:31.570Z,1008.64
2017-11-03T10:15:31.550Z,1008.63
2017-11-03T10:16:31.539Z,1008.66
2017-11-03T10:17:31.521Z,1008.65
2017-11-03T10:18:31.506Z,1008.68
2017-11-03T10:19:31.492Z,1008.65
2017-11-03T10:20:31.478Z,1008.67
2017-11-03T10:21:31.462Z,1008.61
2017-11-03T10:22:31.448Z,1008.6
2017-11-03T10:23:31.434Z,1008.61
2017-11-03T10:24:31.420Z,1008.64
2017-11-03T10:25:31.405Z,1008.62
2017-11-03T10:26:31.391Z,1008.59
2017-11-03T10:27:31.379Z,1008.61
2017-11-03T10:28:31.362Z,1008.51
2017-11-03T10:29:31.352Z,1008.56
2017-11-03T10:30:31.335Z,1008.61
2017-11-03T10:31:31.324Z,1008.56
2017-11-03T10:32:31.308Z,1008.52
2017-11-03T10:33:31.294Z,1008.53
2017-11-03T10:34:31.283Z,1008.49
2017-11-03T10:35:31.267Z,1008.5
2017-11-03T10:36:31.252Z,1008.49
2017-11-03T10:37:31.240Z,1008.47
2017-11-03T10:38:31.229Z,1008.49
2017-11-03T10:39:31.210Z,1008.5
2017-11-03T10:40:31.199Z,1008.48
2017-11-03T10:41:31.184Z,1008.49
2017-11-03T10:42:31.170Z,1008.45
2017-11-03T10:43:31.153Z,1008.44
2017-11-03T10:44:31.142Z,1008.48
2017-11-03T10:45:31.128Z,1008.43
2017-11-03T10:46:31.114Z,1008.46
2017-11-03T10:47:31.107Z,1008.41
2017-11-03T10:48:31.088Z,1008.39
2017-11-03T10:49:31.070Z,1008.45
2017-11-03T10:50:31.057Z,1008.38
2017-11-03T10:51:31.043Z,1008.43
2017-11-03T10:52:31.029Z,1008.4
2017-11-03T10:53:31.015Z,1008.4
2017-11-03T10:54:31.015Z,1008.4
2017-11-03T10:55:30.989Z,1008.4
2017-11-03T10:56:30.979Z,1008.37
2017-11-03T10:57:30.962Z,1008.33
2017-11-03T10:58:30.952Z,1008.35
2017-11-03T10:59:30.934Z,1008.36
2017-11-03T11:00:30.921Z,1008.35
2017-11-03T11:01:30.908Z,1008.31
2017-11-03T11:02:30.894Z,1008.31
2017-11-03T11:03:30.878Z,1008.27
2017-11-03T11:04:30.863Z,1008.25
2017-11-03T11:05:30.849Z,1008.27
2017-11-03T11:06:30.837Z,1008.27
2017-11-03T11:07:30.824Z,1008.25
2017-11-03T11:08:30.807Z,1008.25
2017-11-03T11:09:30.795Z,1008.24
2017-11-03T11:10:30.783Z,1008.26
2017-11-03T11:11:30.766Z,1008.24
2017-11-03T11:12:30.753Z,1008.27
2017-11-03T11:13:30.741Z,1008.29
2017-11-03T11:14:30.725Z,1008.27
2017-11-03T11:15:30.717Z,1008.28
2017-11-03T11:16:30.699Z,1008.26
2017-11-03T11:17:30.688Z,1008.25
2017-11-03T11:18:30.671Z,1008.26
2017-11-03T11:19:30.659Z,1008.27
2017-11-03T11:20:30.644Z,1008.29
2017-11-03T11:21:30.629Z,1008.25
2017-11-03T11:22:30.617Z,1008.26
2017-11-03T11:23:30.605Z,1008.25
2017-11-03T11:24:30.589Z,1008.18
2017-11-03T11:25:30.583Z,1008.2
2017-11-03T11:26:30.572Z,1008.15
2017-11-03T11:27:30.552Z,1008.16
2017-11-03T11:28:30.536Z,1008.14
2017-11-03T11:29:30.524Z,1008.18
2017-11-03T11:30:30.508Z,1008.14
2017-11-03T11:31:30.498Z,1008.12
2017-11-03T11:32:30.482Z,1008.1
2017-11-03T11:33:30.473Z,1008.09
2017-11-03T11:34:30.456Z,1008.09
2017-11-03T11:35:30.441Z,1008.1
2017-11-03T11:36:30.429Z,1008.08
2017-11-03T11:37:30.420Z,1008.12
2017-11-03T11:38:30.608Z,1008.1
2017-11-03T11:39:30.390Z,1008.12
2017-11-03T11:40:30.373Z,1008.03
2017-11-03T11:41:30.361Z,1008.04
2017-11-03T11:42:30.353Z,1008.05
2017-11-03T11:43:30.333Z,1007.99
2017-11-03T11:44:30.320Z,1007.96
2017-11-03T11:45:30.306Z,1007.98
2017-11-03T11:46:30.294Z,1008.02
2017-11-03T11:47:30.280Z,1008.01
2017-11-03T11:48:30.268Z,1008.04
2017-11-03T11:49:30.252Z,1008.03
2017-11-03T11:50:30.243Z,1008
2017-11-03T11:51:30.228Z,1007.99
2017-11-03T11:52:30.214Z,1007.96
2017-11-03T11:53:30.199Z,1007.99
2017-11-03T11:54:30.189Z,1007.96
2017-11-03T11:55:30.174Z,1007.94
2017-11-03T11:56:30.160Z,1007.95
2017-11-03T11:57:30.148Z,1007.96
2017-11-03T11:58:30.133Z,1007.92
2017-11-03T11:59:30.121Z,1007.95
2017-11-03T12:00:30.115Z,1007.92
2017-11-03T12:01:30.094Z,1007.9
2017-11-03T12:02:30.080Z,1007.9
2017-11-03T12:03:30.069Z,1007.88
2017-11-03T12:04:30.063Z,1007.88
2017-11-03T12:05:30.041Z,1007.84
2017-11-03T12:06:30.026Z,1007.89
2017-11-03T12:07:30.016Z,1007.84
2017-11-03T12:08:30.000Z,1007.89